sensor_id;sensor_type;location;lat;lon;timestamp;pressure;altitude;pressure_sealevel;temperature;humidity
72226;BME280;60130;52.250;5.048;2023-07-08T00:00:00;1018.5;;;20.0;59.4
72226;BME280;60130;52.250;5.048;2023-07-08T00:05:00;1018.5;;;19.9;59.0
72226;BME280;60130;52.250;5.048;2023-07-08T00:10:00;1018.3;;;20.0;58.3
72226;BME280;60130;52.250;5.048;2023-07-08T00:15:00;1018.2;;;20.0;58.2
72226;BME280;60130;52.250;5.048;2023-07-08T00:20:00;1018.2;;;20.0;58.4
72226;BME280;60130;52.250;5.048;2023-07-08T00:25:00;1018.2;;;19.9;58.6
72226;BME280;60130;52.250;5.048;2023-07-08T00:30:00;1018.2;;;19.8;59.1
72226;BME280;60130;52.250;5.048;2023-07-08T00:35:00;1018.2;;;19.7;60.0
72226;BME280;60130;52.250;5.048;2023-07-08T00:40:00;1018.1;;;19.6;61.1
72226;BME280;60130;52.250;5.048;2023-07-08T00:45:00;1018.1;;;19.5;61.5
72226;BME280;60130;52.250;5.048;2023-07-08T00:50:03;1018.0;;;19.4;61.8
72226;BME280;60130;52.250;5.048;2023-07-08T00:55:04;1018.0;;;19.4;62.1
72226;BME280;60130;52.250;5.048;2023-07-08T01:00:04;1018.0;;;19.3;62.6
72226;BME280;60130;52.250;5.048;2023-07-08T01:05:04;1018.0;;;19.1;63.3
72226;BME280;60130;52.250;5.048;2023-07-08T01:10:02;1017.9;;;19.0;63.4
72226;BME280;60130;52.250;5.048;2023-07-08T01:15:01;1017.9;;;19.0;63.3
72226;BME280;60130;52.250;5.048;2023-07-08T01:20:00;1017.8;;;19.1;63.0
72226;BME280;60130;52.250;5.048;2023-07-08T01:25:00;1017.8;;;19.0;63.2
72226;BME280;60130;52.250;5.048;2023-07-08T01:30:02;1017.8;;;19.0;63.7
72226;BME280;60130;52.250;5.048;2023-07-08T01:35:01;1017.7;;;18.9;63.6
72226;BME280;60130;52.250;5.048;2023-07-08T01:40:14;1017.7;;;18.9;63.7
72226;BME280;60130;52.250;5.048;2023-07-08T01:45:00;1017.7;;;18.9;64.2
72226;BME280;60130;52.250;5.048;2023-07-08T01:50:00;1017.7;;;18.9;64.2
72226;BME280;60130;52.250;5.048;2023-07-08T01:55:00;1017.7;;;18.9;63.6
72226;BME280;60130;52.250;5.048;2023-07-08T02:00:00;1017.5;;;18.9;63.7
72226;BME280;60130;52.250;5.048;2023-07-08T02:05:00;1017.5;;;18.9;64.0
72226;BME280;60130;52.250;5.048;2023-07-08T02:10:00;1017.5;;;18.9;63.9
72226;BME280;60130;52.250;5.048;2023-07-08T02:15:01;1017.5;;;18.8;64.0
72226;BME280;60130;52.250;5.048;2023-07-08T02:20:00;1017.4;;;18.8;64.0
72226;BME280;60130;52.250;5.048;2023-07-08T02:25:00;1017.3;;;18.7;64.5
72226;BME280;60130;52.250;5.048;2023-07-08T02:30:00;1017.3;;;18.6;64.7
72226;BME280;60130;52.250;5.048;2023-07-08T02:35:00;1017.2;;;18.5;65.1
72226;BME280;60130;52.250;5.048;2023-07-08T02:40:00;1017.2;;;18.6;64.6
72226;BME280;60130;52.250;5.048;2023-07-08T02:45:00;1017.2;;;18.4;65.0
72226;BME280;60130;52.250;5.048;2023-07-08T02:50:00;1017.2;;;18.4;65.5
72226;BME280;60130;52.250;5.048;2023-07-08T02:55:00;1017.2;;;18.4;65.8
72226;BME280;60130;52.250;5.048;2023-07-08T03:00:00;1017.2;;;18.2;65.9
72226;BME280;60130;52.250;5.048;2023-07-08T03:05:00;1017.2;;;18.2;65.6
72226;BME280;60130;52.250;5.048;2023-07-08T03:10:00;1017.1;;;18.2;65.6
72226;BME280;60130;52.250;5.048;2023-07-08T03:15:00;1017.1;;;18.2;65.8
72226;BME280;60130;52.250;5.048;2023-07-08T03:20:00;1017.1;;;18.1;66.1
72226;BME280;60130;52.250;5.048;2023-07-08T03:25:00;1017.2;;;18.2;65.8
72226;BME280;60130;52.250;5.048;2023-07-08T03:30:00;1017.2;;;18.1;66.1
72226;BME280;60130;52.250;5.048;2023-07-08T03:35:00;1017.2;;;18.1;66.7
72226;BME280;60130;52.250;5.048;2023-07-08T03:40:00;1017.2;;;18.0;66.9
72226;BME280;60130;52.250;5.048;2023-07-08T03:45:00;1017.2;;;17.9;66.8
72226;BME280;60130;52.250;5.048;2023-07-08T03:50:00;1017.2;;;17.9;66.7
72226;BME280;60130;52.250;5.048;2023-07-08T03:55:00;1017.2;;;17.9;67.1
72226;BME280;60130;52.250;5.048;2023-07-08T04:00:00;1017.2;;;17.9;66.9
72226;BME280;60130;52.250;5.048;2023-07-08T04:05:00;1017.3;;;18.0;67.0
72226;BME280;60130;52.250;5.048;2023-07-08T04:10:00;1017.2;;;18.0;67.2
72226;BME280;60130;52.250;5.048;2023-07-08T04:15:00;1017.2;;;18.0;66.7
72226;BME280;60130;52.250;5.048;2023-07-08T04:20:00;1017.2;;;18.1;66.6
72226;BME280;60130;52.250;5.048;2023-07-08T04:25:00;1017.2;;;18.1;66.6
72226;BME280;60130;52.250;5.048;2023-07-08T04:30:00;1017.2;;;18.2;66.4
72226;BME280;60130;52.250;5.048;2023-07-08T04:35:00;1017.3;;;18.3;66.7
72226;BME280;60130;52.250;5.048;2023-07-08T04:40:00;1017.3;;;18.2;67.0
72226;BME280;60130;52.250;5.048;2023-07-08T04:45:00;1017.3;;;18.4;66.4
72226;BME280;60130;52.250;5.048;2023-07-08T04:50:00;1017.3;;;18.5;66.0
72226;BME280;60130;52.250;5.048;2023-07-08T04:55:00;1017.3;;;18.6;65.2
72226;BME280;60130;52.250;5.048;2023-07-08T05:00:00;1017.3;;;18.8;64.9
72226;BME280;60130;52.250;5.048;2023-07-08T05:05:00;1017.3;;;18.9;65.1
72226;BME280;60130;52.250;5.048;2023-07-08T05:10:00;1017.3;;;19.1;64.5
72226;BME280;60130;52.250;5.048;2023-07-08T05:15:00;1017.3;;;19.2;63.9
72226;BME280;60130;52.250;5.048;2023-07-08T05:20:00;1017.3;;;19.4;63.2
72226;BME280;60130;52.250;5.048;2023-07-08T05:25:00;1017.2;;;19.7;63.0
72226;BME280;60130;52.250;5.048;2023-07-08T05:30:00;1017.2;;;19.7;62.7
72226;BME280;60130;52.250;5.048;2023-07-08T05:35:00;1017.3;;;19.9;62.1
72226;BME280;60130;52.250;5.048;2023-07-08T05:40:00;1017.3;;;20.1;61.3
72226;BME280;60130;52.250;5.048;2023-07-08T05:45:00;1017.3;;;20.4;61.1
72226;BME280;60130;52.250;5.048;2023-07-08T05:50:00;1017.3;;;20.7;61.1
72226;BME280;60130;52.250;5.048;2023-07-08T05:55:00;1017.4;;;20.9;61.3
72226;BME280;60130;52.250;5.048;2023-07-08T06:00:00;1017.3;;;21.1;58.6
72226;BME280;60130;52.250;5.048;2023-07-08T06:05:00;1017.3;;;21.1;58.5
72226;BME280;60130;52.250;5.048;2023-07-08T06:10:00;1017.3;;;21.9;57.3
72226;BME280;60130;52.250;5.048;2023-07-08T06:15:00;1017.3;;;23.3;54.7
72226;BME280;60130;52.250;5.048;2023-07-08T06:20:00;1017.3;;;24.5;50.9
72226;BME280;60130;52.250;5.048;2023-07-08T06:25:02;1017.4;;;25.7;47.9
72226;BME280;60130;52.250;5.048;2023-07-08T06:30:00;1017.4;;;26.4;46.4
72226;BME280;60130;52.250;5.048;2023-07-08T06:35:00;1017.5;;;27.2;46.0
72226;BME280;60130;52.250;5.048;2023-07-08T06:40:00;1017.5;;;27.5;44.9
72226;BME280;60130;52.250;5.048;2023-07-08T06:45:00;1017.5;;;27.7;45.1
72226;BME280;60130;52.250;5.048;2023-07-08T06:50:00;1017.5;;;27.9;43.3
72226;BME280;60130;52.250;5.048;2023-07-08T06:55:01;1017.4;;;28.0;42.9
72226;BME280;60130;52.250;5.048;2023-07-08T07:00:00;1017.4;;;28.0;43.6
72226;BME280;60130;52.250;5.048;2023-07-08T07:05:00;1017.4;;;28.3;41.9
72226;BME280;60130;52.250;5.048;2023-07-08T07:10:02;1017.3;;;28.7;43.4
72226;BME280;60130;52.250;5.048;2023-07-08T07:15:00;1017.3;;;28.9;43.7
72226;BME280;60130;52.250;5.048;2023-07-08T07:20:00;1017.2;;;29.4;41.2
72226;BME280;60130;52.250;5.048;2023-07-08T07:25:01;1017.3;;;29.7;39.7
72226;BME280;60130;52.250;5.048;2023-07-08T07:30:00;1017.2;;;29.8;41.1
72226;BME280;60130;52.250;5.048;2023-07-08T07:35:00;1017.2;;;29.6;39.5
72226;BME280;60130;52.250;5.048;2023-07-08T07:40:00;1017.3;;;29.6;40.7
72226;BME280;60130;52.250;5.048;2023-07-08T07:45:00;1017.3;;;29.8;40.9
72226;BME280;60130;52.250;5.048;2023-07-08T07:50:00;1017.3;;;30.3;38.9
72226;BME280;60130;52.250;5.048;2023-07-08T07:55:01;1017.2;;;30.5;39.9
72226;BME280;60130;52.250;5.048;2023-07-08T08:00:00;1017.1;;;30.1;39.2
72226;BME280;60130;52.250;5.048;2023-07-08T08:05:00;1017.1;;;30.1;40.4
72226;BME280;60130;52.250;5.048;2023-07-08T08:10:00;1017.1;;;29.9;39.0
72226;BME280;60130;52.250;5.048;2023-07-08T08:15:00;1017.1;;;29.9;40.6
72226;BME280;60130;52.250;5.048;2023-07-08T08:20:00;1017.0;;;29.5;39.3
72226;BME280;60130;52.250;5.048;2023-07-08T08:25:00;1017.1;;;29.7;40.5
72226;BME280;60130;52.250;5.048;2023-07-08T08:30:00;1017.1;;;29.6;42.4
72226;BME280;60130;52.250;5.048;2023-07-08T08:35:00;1017.1;;;28.9;42.0
72226;BME280;60130;52.250;5.048;2023-07-08T08:40:00;1017.1;;;28.6;42.8
72226;BME280;60130;52.250;5.048;2023-07-08T08:45:02;1017.2;;;28.7;43.6
72226;BME280;60130;52.250;5.048;2023-07-08T08:50:04;1017.3;;;28.5;42.8
72226;BME280;60130;52.250;5.048;2023-07-08T08:55:00;1017.3;;;28.5;43.4
72226;BME280;60130;52.250;5.048;2023-07-08T09:00:00;1017.3;;;28.6;45.2
72226;BME280;60130;52.250;5.048;2023-07-08T09:05:03;1017.2;;;28.6;45.2
72226;BME280;60130;52.250;5.048;2023-07-08T09:10:07;1017.3;;;28.6;44.6
72226;BME280;60130;52.250;5.048;2023-07-08T09:15:04;1017.3;;;28.7;42.9
72226;BME280;60130;52.250;5.048;2023-07-08T09:20:06;1017.2;;;28.9;43.8
72226;BME280;60130;52.250;5.048;2023-07-08T09:25:08;1017.2;;;28.7;43.0
72226;BME280;60130;52.250;5.048;2023-07-08T09:30:00;1017.2;;;29.0;44.1
72226;BME280;60130;52.250;5.048;2023-07-08T09:35:03;1017.2;;;29.5;44.7
72226;BME280;60130;52.250;5.048;2023-07-08T09:40:04;1017.2;;;29.6;42.5
72226;BME280;60130;52.250;5.048;2023-07-08T09:45:02;1017.1;;;29.8;41.1
72226;BME280;60130;52.250;5.048;2023-07-08T09:50:10;1017.2;;;29.8;40.8
72226;BME280;60130;52.250;5.048;2023-07-08T09:55:00;1017.2;;;30.2;39.9
72226;BME280;60130;52.250;5.048;2023-07-08T10:00:08;1017.2;;;30.1;42.2
72226;BME280;60130;52.250;5.048;2023-07-08T10:05:04;1017.2;;;30.1;40.9
72226;BME280;60130;52.250;5.048;2023-07-08T10:10:06;1017.2;;;30.4;39.9
72226;BME280;60130;52.250;5.048;2023-07-08T10:15:03;1017.2;;;30.7;40.7
72226;BME280;60130;52.250;5.048;2023-07-08T10:20:00;1017.2;;;31.0;39.3
72226;BME280;60130;52.250;5.048;2023-07-08T10:25:15;1017.2;;;31.2;37.7
72226;BME280;60130;52.250;5.048;2023-07-08T10:30:17;1017.1;;;31.1;38.1
72226;BME280;60130;52.250;5.048;2023-07-08T10:35:08;1017.1;;;31.5;37.7
72226;BME280;60130;52.250;5.048;2023-07-08T10:40:10;1017.1;;;31.6;35.5
72226;BME280;60130;52.250;5.048;2023-07-08T10:45:10;1017.1;;;31.8;37.2
72226;BME280;60130;52.250;5.048;2023-07-08T10:50:16;1017.1;;;32.2;37.9
72226;BME280;60130;52.250;5.048;2023-07-08T10:55:11;1017.0;;;32.1;34.6
72226;BME280;60130;52.250;5.048;2023-07-08T11:00:07;1017.0;;;32.4;37.6
72226;BME280;60130;52.250;5.048;2023-07-08T11:05:07;1017.0;;;32.5;35.7
72226;BME280;60130;52.250;5.048;2023-07-08T11:10:02;1016.9;;;32.0;35.7
72226;BME280;60130;52.250;5.048;2023-07-08T11:15:05;1016.9;;;32.4;36.1
72226;BME280;60130;52.250;5.048;2023-07-08T11:20:10;1016.8;;;32.6;36.1
72226;BME280;60130;52.250;5.048;2023-07-08T11:25:02;1016.9;;;32.9;37.8
72226;BME280;60130;52.250;5.048;2023-07-08T11:30:04;1016.8;;;33.2;36.1
72226;BME280;60130;52.250;5.048;2023-07-08T11:35:02;1016.9;;;33.1;36.8
72226;BME280;60130;52.250;5.048;2023-07-08T11:40:06;1016.8;;;33.6;36.7
72226;BME280;60130;52.250;5.048;2023-07-08T11:45:01;1016.9;;;33.7;34.3
72226;BME280;60130;52.250;5.048;2023-07-08T11:50:00;1016.8;;;33.8;35.3
72226;BME280;60130;52.250;5.048;2023-07-08T11:55:14;1016.8;;;34.0;33.7
72226;BME280;60130;52.250;5.048;2023-07-08T12:00:13;1016.8;;;34.0;33.4
72226;BME280;60130;52.250;5.048;2023-07-08T12:05:02;1016.7;;;34.2;34.9
72226;BME280;60130;52.250;5.048;2023-07-08T12:10:05;1016.7;;;34.3;29.5
72226;BME280;60130;52.250;5.048;2023-07-08T12:15:08;1016.7;;;34.4;34.0
72226;BME280;60130;52.250;5.048;2023-07-08T12:20:02;1016.7;;;34.4;31.0
72226;BME280;60130;52.250;5.048;2023-07-08T12:25:00;1016.6;;;34.6;32.9
72226;BME280;60130;52.250;5.048;2023-07-08T12:30:00;1016.6;;;34.6;29.4
72226;BME280;60130;52.250;5.048;2023-07-08T12:35:00;1016.5;;;34.7;29.4
72226;BME280;60130;52.250;5.048;2023-07-08T12:40:00;1016.5;;;34.5;31.3
72226;BME280;60130;52.250;5.048;2023-07-08T12:45:00;1016.5;;;34.9;32.9
72226;BME280;60130;52.250;5.048;2023-07-08T12:50:00;1016.5;;;35.0;30.6
72226;BME280;60130;52.250;5.048;2023-07-08T12:55:00;1016.5;;;35.1;31.3
72226;BME280;60130;52.250;5.048;2023-07-08T13:00:01;1016.5;;;35.0;32.0
72226;BME280;60130;52.250;5.048;2023-07-08T13:05:01;1016.4;;;35.0;31.7
72226;BME280;60130;52.250;5.048;2023-07-08T13:10:00;1016.4;;;35.3;31.8
72226;BME280;60130;52.250;5.048;2023-07-08T13:15:00;1016.4;;;35.8;30.9
72226;BME280;60130;52.250;5.048;2023-07-08T13:20:00;1016.4;;;35.2;31.5
72226;BME280;60130;52.250;5.048;2023-07-08T13:25:01;1016.4;;;35.6;29.2
72226;BME280;60130;52.250;5.048;2023-07-08T13:30:16;1016.4;;;35.4;26.9
72226;BME280;60130;52.250;5.048;2023-07-08T13:35:00;1016.4;;;35.8;24.4
72226;BME280;60130;52.250;5.048;2023-07-08T13:40:00;1016.4;;;35.7;26.5
72226;BME280;60130;52.250;5.048;2023-07-08T13:45:00;1016.5;;;35.6;26.1
72226;BME280;60130;52.250;5.048;2023-07-08T13:50:14;1016.4;;;35.7;25.9
72226;BME280;60130;52.250;5.048;2023-07-08T13:55:02;1016.3;;;35.7;25.2
72226;BME280;60130;52.250;5.048;2023-07-08T14:00:00;1016.3;;;36.0;25.7
72226;BME280;60130;52.250;5.048;2023-07-08T14:05:01;1016.3;;;36.4;23.4
72226;BME280;60130;52.250;5.048;2023-07-08T14:10:00;1016.3;;;35.8;24.9
72226;BME280;60130;52.250;5.048;2023-07-08T14:15:00;1016.3;;;35.9;24.6
72226;BME280;60130;52.250;5.048;2023-07-08T14:20:00;1016.3;;;35.9;26.5
72226;BME280;60130;52.250;5.048;2023-07-08T14:25:04;1016.4;;;35.4;23.3
72226;BME280;60130;52.250;5.048;2023-07-08T14:30:00;1016.5;;;35.5;26.4
72226;BME280;60130;52.250;5.048;2023-07-08T14:35:14;1016.5;;;35.7;28.1
72226;BME280;60130;52.250;5.048;2023-07-08T14:40:00;1016.5;;;36.0;26.7
72226;BME280;60130;52.250;5.048;2023-07-08T14:45:00;1016.5;;;36.3;26.4
72226;BME280;60130;52.250;5.048;2023-07-08T14:50:04;1016.5;;;36.6;26.8
72226;BME280;60130;52.250;5.048;2023-07-08T14:55:00;1016.5;;;36.7;26.0
72226;BME280;60130;52.250;5.048;2023-07-08T15:00:00;1016.5;;;37.1;28.9
72226;BME280;60130;52.250;5.048;2023-07-08T15:05:00;1016.5;;;36.7;27.8
72226;BME280;60130;52.250;5.048;2023-07-08T15:10:00;1016.5;;;36.2;26.4
72226;BME280;60130;52.250;5.048;2023-07-08T15:15:00;1016.5;;;36.1;25.7
72226;BME280;60130;52.250;5.048;2023-07-08T15:20:04;1016.5;;;36.2;27.9
72226;BME280;60130;52.250;5.048;2023-07-08T15:25:00;1016.5;;;36.1;29.5
72226;BME280;60130;52.250;5.048;2023-07-08T15:30:00;1016.5;;;35.7;28.9
72226;BME280;60130;52.250;5.048;2023-07-08T15:35:00;1016.5;;;35.3;29.6
72226;BME280;60130;52.250;5.048;2023-07-08T15:40:00;1016.5;;;35.2;29.5
72226;BME280;60130;52.250;5.048;2023-07-08T15:45:00;1016.5;;;35.4;30.4
72226;BME280;60130;52.250;5.048;2023-07-08T15:50:00;1016.5;;;35.7;28.9
72226;BME280;60130;52.250;5.048;2023-07-08T15:55:00;1016.4;;;35.6;27.5
72226;BME280;60130;52.250;5.048;2023-07-08T16:00:00;1016.3;;;34.6;29.0
72226;BME280;60130;52.250;5.048;2023-07-08T16:05:00;1016.3;;;34.0;31.1
72226;BME280;60130;52.250;5.048;2023-07-08T16:10:00;1016.3;;;33.8;32.6
72226;BME280;60130;52.250;5.048;2023-07-08T16:15:00;1016.3;;;33.7;35.4
72226;BME280;60130;52.250;5.048;2023-07-08T16:20:00;1016.3;;;33.6;35.1
72226;BME280;60130;52.250;5.048;2023-07-08T16:25:00;1016.3;;;33.8;35.4
72226;BME280;60130;52.250;5.048;2023-07-08T16:30:00;1016.3;;;33.7;37.3
72226;BME280;60130;52.250;5.048;2023-07-08T16:35:00;1016.4;;;33.6;37.4
72226;BME280;60130;52.250;5.048;2023-07-08T16:40:00;1016.3;;;33.4;38.6
72226;BME280;60130;52.250;5.048;2023-07-08T16:45:00;1016.3;;;33.3;39.2
72226;BME280;60130;52.250;5.048;2023-07-08T16:50:00;1016.3;;;33.2;39.7
72226;BME280;60130;52.250;5.048;2023-07-08T16:55:04;1016.3;;;32.9;42.0
72226;BME280;60130;52.250;5.048;2023-07-08T17:00:00;1016.3;;;32.5;42.8
72226;BME280;60130;52.250;5.048;2023-07-08T17:05:00;1016.2;;;32.4;42.2
72226;BME280;60130;52.250;5.048;2023-07-08T17:10:00;1016.2;;;32.6;41.3
72226;BME280;60130;52.250;5.048;2023-07-08T17:15:00;1016.2;;;33.0;40.1
72226;BME280;60130;52.250;5.048;2023-07-08T17:20:14;1016.2;;;33.1;39.6
72226;BME280;60130;52.250;5.048;2023-07-08T17:25:00;1016.2;;;33.0;40.5
72226;BME280;60130;52.250;5.048;2023-07-08T17:30:00;1016.2;;;32.9;40.5
72226;BME280;60130;52.250;5.048;2023-07-08T17:35:00;1016.1;;;33.3;38.9
72226;BME280;60130;52.250;5.048;2023-07-08T17:40:00;1016.1;;;33.4;37.9
72226;BME280;60130;52.250;5.048;2023-07-08T17:45:00;1016.1;;;33.7;36.4
72226;BME280;60130;52.250;5.048;2023-07-08T17:50:00;1016.1;;;34.2;36.6
72226;BME280;60130;52.250;5.048;2023-07-08T17:55:00;1016.2;;;34.1;38.0
72226;BME280;60130;52.250;5.048;2023-07-08T18:00:00;1016.2;;;33.3;39.5
72226;BME280;60130;52.250;5.048;2023-07-08T18:05:00;1016.2;;;33.9;38.3
72226;BME280;60130;52.250;5.048;2023-07-08T18:10:00;1016.2;;;34.1;37.9
72226;BME280;60130;52.250;5.048;2023-07-08T18:15:00;1016.2;;;33.9;37.4
72226;BME280;60130;52.250;5.048;2023-07-08T18:20:00;1016.2;;;33.9;37.5
72226;BME280;60130;52.250;5.048;2023-07-08T18:25:10;1016.3;;;34.0;38.2
72226;BME280;60130;52.250;5.048;2023-07-08T18:30:00;1016.3;;;34.0;37.9
72226;BME280;60130;52.250;5.048;2023-07-08T18:35:00;1016.4;;;34.0;39.7
72226;BME280;60130;52.250;5.048;2023-07-08T18:40:00;1016.4;;;33.6;40.1
72226;BME280;60130;52.250;5.048;2023-07-08T18:45:00;1016.4;;;33.5;39.9
72226;BME280;60130;52.250;5.048;2023-07-08T18:50:01;1016.4;;;33.3;40.4
72226;BME280;60130;52.250;5.048;2023-07-08T18:55:00;1016.5;;;33.1;40.8
72226;BME280;60130;52.250;5.048;2023-07-08T19:00:00;1016.4;;;32.9;41.5
72226;BME280;60130;52.250;5.048;2023-07-08T19:05:00;1016.4;;;32.4;43.2
72226;BME280;60130;52.250;5.048;2023-07-08T19:10:00;1016.5;;;32.0;44.4
72226;BME280;60130;52.250;5.048;2023-07-08T19:15:00;1016.5;;;31.4;45.6
72226;BME280;60130;52.250;5.048;2023-07-08T19:20:00;1016.5;;;30.9;47.1
72226;BME280;60130;52.250;5.048;2023-07-08T19:25:00;1016.5;;;30.2;50.1
72226;BME280;60130;52.250;5.048;2023-07-08T19:30:00;1016.5;;;29.5;52.4
72226;BME280;60130;52.250;5.048;2023-07-08T19:35:00;1016.5;;;29.1;52.5
72226;BME280;60130;52.250;5.048;2023-07-08T19:40:00;1016.6;;;28.8;53.1
72226;BME280;60130;52.250;5.048;2023-07-08T19:45:00;1016.7;;;28.5;54.3
72226;BME280;60130;52.250;5.048;2023-07-08T19:50:00;1016.8;;;28.1;57.3
72226;BME280;60130;52.250;5.048;2023-07-08T19:55:01;1016.8;;;27.8;58.4
72226;BME280;60130;52.250;5.048;2023-07-08T20:00:00;1016.8;;;27.4;59.5
72226;BME280;60130;52.250;5.048;2023-07-08T20:05:00;1016.7;;;27.2;60.6
72226;BME280;60130;52.250;5.048;2023-07-08T20:10:00;1016.8;;;27.1;61.6
72226;BME280;60130;52.250;5.048;2023-07-08T20:15:00;1016.9;;;26.9;63.7
72226;BME280;60130;52.250;5.048;2023-07-08T20:20:00;1016.9;;;26.6;64.7
72226;BME280;60130;52.250;5.048;2023-07-08T20:25:00;1016.9;;;26.3;66.1
72226;BME280;60130;52.250;5.048;2023-07-08T20:30:00;1017.0;;;26.3;66.2
72226;BME280;60130;52.250;5.048;2023-07-08T20:35:00;1016.9;;;26.2;66.6
72226;BME280;60130;52.250;5.048;2023-07-08T20:40:00;1017.0;;;26.1;65.6
72226;BME280;60130;52.250;5.048;2023-07-08T20:45:00;1017.1;;;26.1;65.6
72226;BME280;60130;52.250;5.048;2023-07-08T20:50:00;1017.1;;;26.1;67.1
72226;BME280;60130;52.250;5.048;2023-07-08T20:55:00;1017.1;;;26.0;67.7
72226;BME280;60130;52.250;5.048;2023-07-08T21:00:00;1017.2;;;25.8;68.4
72226;BME280;60130;52.250;5.048;2023-07-08T21:05:00;1017.2;;;25.7;67.2
72226;BME280;60130;52.250;5.048;2023-07-08T21:10:00;1017.3;;;25.6;68.6
72226;BME280;60130;52.250;5.048;2023-07-08T21:15:00;1017.2;;;25.5;69.1
72226;BME280;60130;52.250;5.048;2023-07-08T21:20:00;1017.2;;;25.5;70.1
72226;BME280;60130;52.250;5.048;2023-07-08T21:25:00;1017.2;;;25.1;71.4
72226;BME280;60130;52.250;5.048;2023-07-08T21:30:00;1017.2;;;24.8;72.7
72226;BME280;60130;52.250;5.048;2023-07-08T21:35:00;1017.2;;;24.6;73.1
72226;BME280;60130;52.250;5.048;2023-07-08T21:40:04;1017.2;;;24.5;72.9
72226;BME280;60130;52.250;5.048;2023-07-08T21:45:00;1017.2;;;24.5;72.1
72226;BME280;60130;52.250;5.048;2023-07-08T21:50:00;1017.2;;;24.5;72.9
72226;BME280;60130;52.250;5.048;2023-07-08T21:55:00;1017.2;;;24.4;72.4
72226;BME280;60130;52.250;5.048;2023-07-08T22:00:00;1017.2;;;24.3;73.0
72226;BME280;60130;52.250;5.048;2023-07-08T22:05:00;1017.3;;;24.2;72.8
72226;BME280;60130;52.250;5.048;2023-07-08T22:10:04;1017.4;;;24.1;73.5
72226;BME280;60130;52.250;5.048;2023-07-08T22:15:00;1017.4;;;24.0;74.9
72226;BME280;60130;52.250;5.048;2023-07-08T22:20:00;1017.4;;;23.8;75.3
72226;BME280;60130;52.250;5.048;2023-07-08T22:25:00;1017.5;;;23.7;74.9
72226;BME280;60130;52.250;5.048;2023-07-08T22:30:00;1017.6;;;23.6;74.8
72226;BME280;60130;52.250;5.048;2023-07-08T22:35:00;1017.6;;;23.6;73.5
72226;BME280;60130;52.250;5.048;2023-07-08T22:40:00;1017.8;;;23.6;70.9
72226;BME280;60130;52.250;5.048;2023-07-08T22:45:00;1017.8;;;23.7;69.6
72226;BME280;60130;52.250;5.048;2023-07-08T22:50:00;1017.8;;;23.8;68.4
72226;BME280;60130;52.250;5.048;2023-07-08T22:55:02;1017.7;;;23.8;67.9
72226;BME280;60130;52.250;5.048;2023-07-08T23:00:00;1017.7;;;23.8;69.0
72226;BME280;60130;52.250;5.048;2023-07-08T23:05:00;1017.8;;;23.7;69.3
72226;BME280;60130;52.250;5.048;2023-07-08T23:10:00;1017.8;;;23.7;69.7
72226;BME280;60130;52.250;5.048;2023-07-08T23:15:00;1017.7;;;23.6;70.3
72226;BME280;60130;52.250;5.048;2023-07-08T23:20:00;1017.7;;;23.4;71.6
72226;BME280;60130;52.250;5.048;2023-07-08T23:25:00;1017.7;;;23.1;72.8
72226;BME280;60130;52.250;5.048;2023-07-08T23:30:00;1017.6;;;22.9;73.0
72226;BME280;60130;52.250;5.048;2023-07-08T23:35:00;1017.5;;;22.9;72.8
72226;BME280;60130;52.250;5.048;2023-07-08T23:40:00;1017.6;;;22.7;73.3
72226;BME280;60130;52.250;5.048;2023-07-08T23:45:00;1017.6;;;22.6;74.4
72226;BME280;60130;52.250;5.048;2023-07-08T23:50:00;1017.6;;;22.5;74.2
72226;BME280;60130;52.250;5.048;2023-07-08T23:55:00;1017.6;;;22.4;74.1
